Time;durP1;ratioP1;P1;durP2;ratioP2;P2;SDS_P1;SDS_P2;PMS_P1;PMS_P2;Temp;Humidity;BMP_temperature;BMP_pressure;BME280_temperature;BME280_humidity;BME280_pressure;Samples;Min_cycle;Max_cycle;Signal;HPM_P1;HPM_P2
2021/12/29 09:20:33;;;;;;;83.23;38.10;;;;;;;-8.39;89.15;97426.15;1860260;76;22861;-64
2021/12/29 09:23:05;;;;;;;74.80;36.20;;;;;;;-8.42;89.06;97427.00;1808788;78;20939;-62
2021/12/29 09:25:32;;;;;;;62.43;31.30;;;;;;;-8.34;89.05;97435.17;1827451;78;21877;-64
2021/12/29 09:27:59;;;;;;;46.63;23.50;;;;;;;-8.27;88.83;97439.94;1827321;78;20943;-66
2021/12/29 09:30:29;;;;;;;38.78;23.38;;;;;;;-8.18;88.82;97437.00;1826630;78;21477;-68
2021/12/29 09:32:56;;;;;;;27.98;17.50;;;;;;;-8.06;88.60;97425.13;1827499;78;21003;-65
2021/12/29 09:35:24;;;;;;;33.18;16.73;;;;;;;-7.93;88.16;97421.81;1828437;77;20958;-67
2021/12/29 09:37:51;;;;;;;34.10;19.05;;;;;;;-7.87;87.85;97416.69;1805902;77;21142;-68
2021/12/29 09:40:20;;;;;;;32.65;19.05;;;;;;;-7.78;87.74;97420.75;1803060;78;20872;-64
2021/12/29 09:42:49;;;;;;;28.75;16.17;;;;;;;-7.64;87.40;97428.14;1793505;80;20959;-65
2021/12/29 09:45:16;;;;;;;36.88;18.85;;;;;;;-7.50;87.00;97431.14;1793520;80;20974;-61
2021/12/29 09:47:43;;;;;;;28.73;17.75;;;;;;;-7.47;86.31;97433.37;1794313;79;21037;-65
2021/12/29 09:50:12;;;;;;;34.08;19.87;;;;;;;-7.48;86.40;97439.55;1794668;80;21283;-67
2021/12/29 09:52:41;;;;;;;30.00;17.70;;;;;;;-7.47;86.00;97441.66;1795063;79;20970;-64
2021/12/29 09:55:12;;;;;;;31.90;17.23;;;;;;;-7.49;85.76;97441.05;1794825;80;20887;-62
2021/12/29 09:57:44;;;;;;;31.00;18.87;;;;;;;-7.51;85.64;97431.34;1794474;79;21534;-72
2021/12/29 10:00:28;;;;;;;35.90;20.08;;;;;;;-7.47;85.61;97421.66;1794590;80;21485;-68
2021/12/29 10:02:57;;;;;;;34.13;20.70;;;;;;;-7.43;85.60;97424.18;1795177;79;21789;-68
2021/12/29 10:05:27;;;;;;;31.65;19.15;;;;;;;-7.32;85.44;97413.23;1795101;79;21299;-68
2021/12/29 10:08:02;;;;;;;30.27;18.35;;;;;;;-7.25;84.83;97411.95;1795175;80;21323;-61
2021/12/29 10:10:29;;;;;;;36.05;19.45;;;;;;;-7.28;84.56;97404.06;1794517;80;20923;-62
2021/12/29 10:12:56;;;;;;;33.55;19.60;;;;;;;-7.30;84.52;97401.34;1795299;80;20880;-68
2021/12/29 10:15:30;;;;;;;40.65;24.15;;;;;;;-7.32;84.48;97397.62;1795249;80;21036;-62
2021/12/29 10:18:08;;;;;;;40.43;23.38;;;;;;;-7.30;84.23;97407.33;1799607;78;20994;-69
2021/12/29 10:21:08;;;;;;;38.42;21.17;;;;;;;-7.28;84.43;97400.16;1788104;80;21309;-71
2021/12/29 10:23:41;;;;;;;26.82;17.25;;;;;;;-7.21;84.30;97408.80;1787687;80;20958;-66
2021/12/29 10:26:17;;;;;;;31.02;17.90;;;;;;;-7.13;83.95;97398.71;1764201;80;20835;-65
2021/12/29 10:28:49;;;;;;;27.25;17.40;;;;;;;-7.10;83.49;97397.84;1788289;80;21773;-64
2021/12/29 10:31:26;;;;;;;27.87;17.30;;;;;;;-7.12;83.19;97397.23;1787659;80;21241;-64
2021/12/29 10:33:55;;;;;;;28.38;17.77;;;;;;;-7.13;82.98;97402.13;1787817;80;20903;-67
2021/12/29 10:36:28;;;;;;;30.48;18.15;;;;;;;-7.15;82.83;97396.80;1787789;80;21427;-61
2021/12/29 10:39:10;;;;;;;27.50;16.67;;;;;;;-7.15;82.97;97392.89;1787623;80;20860;-62
2021/12/29 10:41:52;;;;;;;31.95;18.67;;;;;;;-7.10;82.96;97392.63;1787750;80;21128;-62
2021/12/29 10:44:42;;;;;;;31.55;19.45;;;;;;;-7.03;82.74;97392.66;1786700;80;20895;-66
2021/12/29 10:47:23;;;;;;;34.98;19.27;;;;;;;-7.02;82.44;97388.55;1787708;80;21002;-63
2021/12/29 10:50:07;;;;;;;33.33;18.05;;;;;;;-7.00;82.48;97395.69;1787788;80;20923;-69
2021/12/29 10:52:39;;;;;;;29.57;17.67;;;;;;;-6.91;82.34;97411.13;1787730;80;20836;-70
2021/12/29 10:55:19;;;;;;;26.77;17.17;;;;;;;-6.85;82.42;97400.73;1787425;80;21716;-65
2021/12/29 10:57:46;;;;;;;44.67;25.00;;;;;;;-6.72;82.22;97391.67;1786824;80;21596;-68
2021/12/29 11:00:18;;;;;;;28.92;18.87;;;;;;;-6.65;82.19;97392.50;1787509;80;20926;-66
2021/12/29 11:02:45;;;;;;;30.15;18.23;;;;;;;-6.58;82.06;97387.30;1787579;80;20931;-65
2021/12/29 11:05:13;;;;;;;37.60;21.40;;;;;;;-6.53;81.67;97385.72;1787440;80;20989;-61
2021/12/29 11:07:43;;;;;;;39.93;22.07;;;;;;;-6.49;81.88;97379.10;1786382;80;21564;-60
2021/12/29 11:10:18;;;;;;;41.05;23.30;;;;;;;-6.40;81.88;97383.12;1787154;80;21604;-68
2021/12/29 11:12:49;;;;;;;37.23;21.42;;;;;;;-6.30;81.92;97385.34;1787876;80;20970;-61
2021/12/29 11:15:25;;;;;;;59.53;31.00;;;;;;;-6.25;81.42;97382.95;1787292;80;20931;-63
2021/12/29 11:17:55;;;;;;;29.80;18.70;;;;;;;-6.26;81.20;97391.75;1786161;80;21056;-65
2021/12/29 11:20:25;;;;;;;36.28;21.60;;;;;;;-6.28;80.85;97387.24;1786804;80;21114;-64
2021/12/29 11:23:13;;;;;;;38.73;21.87;;;;;;;-6.35;80.92;97380.73;1787592;80;20892;-71
2021/12/29 11:25:41;;;;;;;34.15;21.37;;;;;;;-6.38;80.97;97379.81;1787728;80;20939;-63
2021/12/29 11:28:23;;;;;;;49.70;30.50;;;;;;;-6.35;80.83;97379.92;1787519;80;20850;-69
2021/12/29 11:30:51;;;;;;;43.50;27.62;;;;;;;-6.40;80.77;97380.52;1761098;80;21488;-63
2021/12/29 11:33:18;;;;;;;32.65;21.15;;;;;;;-6.43;80.49;97382.73;1787827;80;21127;-69
2021/12/29 11:35:48;;;;;;;28.70;18.60;;;;;;;-6.57;80.58;97377.97;1787717;80;21327;-63
2021/12/29 11:38:15;;;;;;;30.57;18.05;;;;;;;-6.64;80.71;97380.28;1787756;80;20915;-69
2021/12/29 11:40:47;;;;;;;30.65;18.48;;;;;;;-6.69;80.82;97389.18;1787618;80;20968;-70
2021/12/29 11:43:18;;;;;;;34.63;20.32;;;;;;;-6.73;81.00;97384.03;1787548;80;20915;-68
2021/12/29 11:45:49;;;;;;;33.28;20.80;;;;;;;-6.76;81.11;97381.84;1787657;80;21115;-64
2021/12/29 11:48:23;;;;;;;31.82;20.82;;;;;;;-6.75;81.34;97392.06;1787529;80;20899;-68
2021/12/29 11:50:51;;;;;;;32.83;20.05;;;;;;;-6.70;81.61;97391.47;1749068;82;20880;-68
2021/12/29 11:53:51;;;;;;;36.75;21.17;;;;;;;-6.62;81.50;97399.12;1787572;80;21344;-62
2021/12/29 11:56:19;;;;;;;29.63;20.12;;;;;;;-6.60;81.44;97401.02;1787348;80;20868;-64
2021/12/29 11:58:49;;;;;;;30.85;18.85;;;;;;;-6.60;81.51;97401.02;1787844;80;21875;-68
2021/12/29 12:01:22;;;;;;;33.90;21.42;;;;;;;-6.59;81.51;97397.40;1787875;80;20891;-66
2021/12/29 12:04:00;;;;;;;37.58;20.08;;;;;;;-6.58;81.52;97396.41;1787719;80;20982;-61
2021/12/29 12:06:40;;;;;;;32.88;20.72;;;;;;;-6.52;81.50;97394.31;1787812;80;20903;-62
2021/12/29 12:09:20;;;;;;;47.35;24.75;;;;;;;-6.49;81.44;97406.45;1787709;80;20911;-63
2021/12/29 12:11:57;;;;;;;31.75;19.48;;;;;;;-6.46;81.35;97403.96;1787667;80;21115;-67
2021/12/29 12:14:34;;;;;;;34.73;19.42;;;;;;;-6.49;81.33;97416.08;1787487;80;20900;-60
2021/12/29 12:17:15;;;;;;;46.90;30.12;;;;;;;-6.50;81.39;97414.48;1786567;80;20871;-66
2021/12/29 12:20:00;;;;;;;29.00;18.48;;;;;;;-6.47;81.45;97416.67;1787702;80;20931;-66
2021/12/29 12:22:27;;;;;;;34.00;23.02;;;;;;;-6.45;81.38;97414.17;1788234;80;20831;-62
2021/12/29 12:25:00;;;;;;;33.33;21.12;;;;;;;-6.44;81.30;97417.09;1788162;80;21069;-66
2021/12/29 12:27:43;;;;;;;35.88;22.70;;;;;;;-6.43;81.37;97412.17;1788023;80;20851;-60
2021/12/29 12:30:21;;;;;;;31.87;19.73;;;;;;;-6.37;81.44;97410.59;1788230;80;20876;-67
2021/12/29 12:32:58;;;;;;;36.60;21.45;;;;;;;-6.37;81.22;97419.71;1787879;80;20908;-66
2021/12/29 12:35:37;;;;;;;38.73;23.18;;;;;;;-6.39;81.17;97421.72;1788205;80;20895;-66
2021/12/29 12:38:27;;;;;;;36.45;22.07;;;;;;;-6.44;81.25;97430.63;1788107;80;21004;-64
2021/12/29 12:41:17;;;;;;;35.35;20.90;;;;;;;-6.49;81.25;97438.22;1788208;80;20946;-63
2021/12/29 12:43:58;;;;;;;33.13;21.55;;;;;;;-6.50;81.31;97436.63;1788088;80;20950;-58
2021/12/29 12:46:51;;;;;;;32.17;20.45;;;;;;;-6.54;81.29;97440.61;1788081;80;21359;-61
2021/12/29 12:49:23;;;;;;;39.50;21.73;;;;;;;-6.59;81.44;97440.38;1788096;80;20907;-63
2021/12/29 12:51:59;;;;;;;42.90;23.12;;;;;;;-6.57;81.58;97439.19;1788101;80;21040;-66
2021/12/29 12:54:30;;;;;;;38.73;22.85;;;;;;;-6.52;81.63;97442.51;1788313;80;21411;-70
2021/12/29 12:56:58;;;;;;;39.50;22.05;;;;;;;-6.53;81.51;97444.83;1788359;80;20840;-63
2021/12/29 12:59:42;;;;;;;40.98;24.32;;;;;;;-6.54;81.64;97432.79;1788089;80;20904;-62
2021/12/29 13:02:18;;;;;;;38.90;22.95;;;;;;;-6.53;81.66;97426.59;1788736;80;26348;-63
2021/12/29 13:05:19;;;;;;;40.73;24.20;;;;;;;-6.50;81.68;97429.59;1787980;80;21714;-69
2021/12/29 13:08:05;;;;;;;39.05;23.95;;;;;;;-6.49;81.80;97421.28;1788214;80;21352;-63
2021/12/29 13:10:47;;;;;;;41.10;24.27;;;;;;;-6.41;81.82;97417.20;1788182;80;21415;-69
2021/12/29 13:13:22;;;;;;;44.25;26.00;;;;;;;-6.36;81.73;97416.12;1788420;80;20946;-71
2021/12/29 13:15:59;;;;;;;55.08;31.93;;;;;;;-6.37;81.56;97418.41;1788358;80;20848;-66
2021/12/29 13:18:27;;;;;;;41.15;24.65;;;;;;;-6.39;81.62;97425.63;1788445;80;21084;-69
2021/12/29 13:20:58;;;;;;;57.58;35.65;;;;;;;-6.41;81.70;97423.72;1787879;80;21451;-66
2021/12/29 13:23:27;;;;;;;73.70;44.80;;;;;;;-6.41;81.80;97426.33;1788150;80;20832;-71
2021/12/29 13:25:56;;;;;;;43.70;27.35;;;;;;;-6.42;81.79;97425.52;1788132;80;20884;-69
2021/12/29 13:28:25;;;;;;;44.18;26.55;;;;;;;-6.41;81.83;97434.14;1788531;80;20970;-70
2021/12/29 13:30:57;;;;;;;51.40;31.48;;;;;;;-6.45;81.85;97436.82;1788140;80;21046;-61
2021/12/29 13:33:43;;;;;;;58.52;37.00;;;;;;;-6.48;81.99;97441.95;1787314;80;20930;-62
2021/12/29 13:36:11;;;;;;;55.55;35.23;;;;;;;-6.51;82.12;97433.70;1788499;80;27031;-68
2021/12/29 13:38:38;;;;;;;42.62;27.27;;;;;;;-6.58;82.05;97436.80;1788108;80;20859;-62
2021/12/29 13:41:12;;;;;;;43.87;28.80;;;;;;;-6.65;82.39;97438.58;1785874;80;21607;-69
2021/12/29 13:43:45;;;;;;;34.35;22.22;;;;;;;-6.65;82.57;97433.36;1775466;80;21234;-66
2021/12/29 13:46:18;;;;;;;39.53;22.58;;;;;;;-6.62;82.65;97444.70;1761930;80;20899;-71
2021/12/29 13:48:51;;;;;;;38.10;22.90;;;;;;;-6.62;82.62;97443.41;1757626;80;20957;-67
2021/12/29 13:51:27;;;;;;;37.10;21.97;;;;;;;-6.60;82.74;97434.39;1773105;80;21494;-66
2021/12/29 13:54:01;;;;;;;42.85;25.88;;;;;;;-6.61;82.67;97433.27;1779662;80;20927;-67
2021/12/29 13:56:37;;;;;;;36.65;21.87;;;;;;;-6.68;82.78;97432.44;1783451;80;21139;-65
2021/12/29 13:59:25;;;;;;;39.27;23.67;;;;;;;-6.73;82.91;97434.83;1782674;80;21426;-65
2021/12/29 14:02:01;;;;;;;38.65;24.32;;;;;;;-6.78;83.06;97436.71;1787652;80;20900;-69
2021/12/29 14:04:31;;;;;;;36.80;21.93;;;;;;;-6.78;83.29;97432.80;1788157;80;20915;-64
2021/12/29 14:07:04;;;;;;;42.58;23.90;;;;;;;-6.76;83.32;97438.66;1785972;80;20935;-61
2021/12/29 14:09:34;;;;;;;44.30;25.17;;;;;;;-6.80;83.40;97435.30;1781633;80;21524;-65
2021/12/29 14:12:18;;;;;;;36.08;22.32;;;;;;;-6.75;83.54;97440.73;1781884;79;20926;-65
2021/12/29 14:14:46;;;;;;;36.85;22.60;;;;;;;-6.74;83.55;97443.16;1773294;80;20967;-71
2021/12/29 14:17:22;;;;;;;39.45;23.67;;;;;;;-6.75;83.67;97438.13;1756851;81;21451;-66
2021/12/29 14:19:48;;;;;;;40.58;22.17;;;;;;;-6.75;83.72;97443.34;1756162;80;20962;-68
2021/12/29 14:22:27;;;;;;;42.03;24.15;;;;;;;-6.68;83.74;97441.56;1756866;81;21985;-68
2021/12/29 14:24:54;;;;;;;39.35;25.25;;;;;;;-6.63;83.80;97441.29;1782347;80;20910;-66
2021/12/29 14:27:25;;;;;;;40.65;24.18;;;;;;;-6.57;83.71;97434.51;1787338;80;20915;-68
2021/12/29 14:29:53;;;;;;;43.92;25.65;;;;;;;-6.57;83.66;97438.41;1784265;80;20899;-60
2021/12/29 14:32:22;;;;;;;46.20;26.30;;;;;;;-6.62;83.60;97442.91;1782128;80;20912;-66
2021/12/29 14:34:53;;;;;;;41.83;25.77;;;;;;;-6.71;83.62;97443.27;1779017;80;21361;-63
2021/12/29 14:37:29;;;;;;;44.35;26.33;;;;;;;-6.75;83.86;97448.55;1778881;80;20947;-68
2021/12/29 14:39:58;;;;;;;47.05;27.35;;;;;;;-6.79;84.02;97453.84;1787922;80;21085;-62
2021/12/29 14:42:29;;;;;;;38.70;24.52;;;;;;;-6.79;84.17;97453.36;1787465;80;20959;-62
2021/12/29 14:45:07;;;;;;;39.50;24.10;;;;;;;-6.76;84.14;97449.56;1787994;80;20919;-62
2021/12/29 14:47:38;;;;;;;38.50;24.50;;;;;;;-6.80;84.11;97445.72;1787550;80;21090;-68
2021/12/29 14:50:12;;;;;;;39.92;25.40;;;;;;;-6.83;84.28;97457.35;1788384;80;21490;-68
2021/12/29 14:52:43;;;;;;;55.55;31.48;;;;;;;-6.84;84.29;97448.41;1788183;80;20906;-69
2021/12/29 14:55:11;;;;;;;79.10;42.73;;;;;;;-6.85;84.54;97448.13;1788237;80;20883;-69
2021/12/29 14:57:38;;;;;;;43.65;25.27;;;;;;;-6.83;84.61;97454.75;1788255;80;21438;-62
2021/12/29 15:00:22;;;;;;;48.55;28.77;;;;;;;-6.81;84.67;97457.95;1762056;80;21033;-64
2021/12/29 15:02:49;;;;;;;41.08;25.85;;;;;;;-6.79;84.70;97459.05;1752688;80;21400;-70
2021/12/29 15:05:23;;;;;;;41.58;26.33;;;;;;;-6.81;84.75;97461.05;1788245;80;20895;-62
2021/12/29 15:07:52;;;;;;;48.28;31.97;;;;;;;-6.79;84.80;97468.17;1788250;80;20915;-68
2021/12/29 15:10:40;;;;;;;37.33;22.77;;;;;;;-6.77;84.80;97461.77;1788556;80;20868;-68
2021/12/29 15:13:15;;;;;;;42.45;27.65;;;;;;;-6.78;84.76;97462.76;1788179;80;21490;-63
2021/12/29 15:15:43;;;;;;;42.53;25.45;;;;;;;-6.84;84.89;97462.73;1788612;80;20943;-65
2021/12/29 15:18:14;;;;;;;43.33;26.82;;;;;;;-6.81;85.09;97468.87;1788347;80;20824;-68
2021/12/29 15:20:57;;;;;;;40.78;23.98;;;;;;;-6.77;85.06;97467.47;1788179;80;20895;-63
2021/12/29 15:23:29;;;;;;;41.15;24.20;;;;;;;-6.75;84.99;97463.68;1788415;79;20958;-71
2021/12/29 15:25:56;;;;;;;38.83;23.15;;;;;;;-6.72;84.95;97462.48;1788634;80;21103;-67
2021/12/29 15:28:25;;;;;;;41.37;24.70;;;;;;;-6.74;84.99;97462.70;1788146;80;20863;-61
2021/12/29 15:30:55;;;;;;;41.25;25.75;;;;;;;-6.71;85.05;97469.32;1788499;80;20951;-62
2021/12/29 15:33:26;;;;;;;42.88;24.45;;;;;;;-6.66;85.05;97467.72;1788213;80;20943;-68
2021/12/29 15:35:53;;;;;;;39.23;25.25;;;;;;;-6.57;84.97;97467.07;1788158;80;21518;-69
2021/12/29 15:38:21;;;;;;;43.80;25.05;;;;;;;-6.56;84.73;97472.57;1788222;80;21118;-65
2021/12/29 15:40:49;;;;;;;44.40;27.35;;;;;;;-6.59;84.68;97466.44;1788324;80;20895;-62
2021/12/29 15:43:16;;;;;;;45.05;24.82;;;;;;;-6.62;84.69;97461.14;1788199;80;21470;-68
2021/12/29 15:45:43;;;;;;;40.17;23.52;;;;;;;-6.62;84.62;97472.87;1788185;80;20911;-63
2021/12/29 15:48:11;;;;;;;39.75;23.18;;;;;;;-6.63;84.69;97469.13;1788203;80;20899;-63
2021/12/29 15:50:43;;;;;;;39.85;23.90;;;;;;;-6.65;84.66;97472.44;1788199;80;21169;-68
2021/12/29 15:53:09;;;;;;;40.65;26.10;;;;;;;-6.67;84.74;97466.12;1788073;80;20871;-62
2021/12/29 15:55:36;;;;;;;40.85;24.10;;;;;;;-6.64;84.84;97476.14;1788199;80;20826;-62
2021/12/29 15:58:05;;;;;;;35.90;23.45;;;;;;;-6.59;84.78;97485.97;1788378;80;21404;-67
2021/12/29 16:00:35;;;;;;;38.63;23.00;;;;;;;-6.61;84.70;97486.67;1788155;80;21021;-69
2021/12/29 16:03:02;;;;;;;41.13;22.07;;;;;;;-6.59;84.76;97500.30;1788377;80;21860;-70
2021/12/29 16:05:29;;;;;;;35.85;21.42;;;;;;;-6.62;84.66;97496.31;1788012;80;20868;-66
2021/12/29 16:07:59;;;;;;;34.53;21.20;;;;;;;-6.63;84.67;97505.61;1788164;80;21407;-70
2021/12/29 16:10:25;;;;;;;36.80;22.20;;;;;;;-6.65;84.70;97506.30;1788424;80;20919;-68
2021/12/29 16:12:52;;;;;;;42.37;26.13;;;;;;;-6.68;84.77;97513.19;1788278;80;20966;-68
2021/12/29 16:15:19;;;;;;;36.58;23.62;;;;;;;-6.69;84.91;97516.32;1788295;80;21759;-63
2021/12/29 16:17:47;;;;;;;36.73;21.48;;;;;;;-6.63;84.95;97519.94;1788083;80;20820;-69
2021/12/29 16:20:16;;;;;;;44.03;24.47;;;;;;;-6.62;84.83;97525.46;1788135;80;20891;-66
2021/12/29 16:22:44;;;;;;;47.70;28.00;;;;;;;-6.67;84.83;97526.53;1788048;80;20931;-67
2021/12/29 16:25:11;;;;;;;50.30;28.87;;;;;;;-6.70;85.02;97523.81;1788195;80;21009;-65
2021/12/29 16:27:39;;;;;;;51.92;30.20;;;;;;;-6.69;85.11;97522.83;1788032;80;21023;-68
2021/12/29 16:30:17;;;;;;;48.30;29.63;;;;;;;-6.64;85.17;97529.55;1788297;80;20939;-63
2021/12/29 16:32:46;;;;;;;42.17;25.45;;;;;;;-6.56;85.19;97532.00;1788157;80;20907;-62
2021/12/29 16:35:14;;;;;;;46.02;27.87;;;;;;;-6.52;85.10;97535.81;1788133;80;20952;-62
2021/12/29 16:37:43;;;;;;;45.33;26.65;;;;;;;-6.48;85.16;97544.06;1788082;80;20958;-68
2021/12/29 16:40:12;;;;;;;40.92;24.98;;;;;;;-6.42;85.10;97545.88;1788152;80;21756;-62
2021/12/29 16:42:39;;;;;;;43.87;26.33;;;;;;;-6.37;85.02;97550.02;1788025;80;20898;-66
2021/12/29 16:45:07;;;;;;;42.10;25.32;;;;;;;-6.32;84.93;97549.75;1788185;80;20871;-66
2021/12/29 16:47:34;;;;;;;39.10;23.70;;;;;;;-6.34;84.62;97548.34;1788231;80;21428;-69
2021/12/29 16:50:02;;;;;;;41.00;23.57;;;;;;;-6.37;84.54;97553.92;1788200;80;21002;-67
2021/12/29 16:52:29;;;;;;;35.55;23.38;;;;;;;-6.40;84.52;97551.70;1788130;80;21044;-70
2021/12/29 16:54:56;;;;;;;42.85;24.85;;;;;;;-6.40;84.56;97561.63;1789586;80;21340;-60
2021/12/29 16:57:24;;;;;;;47.05;28.77;;;;;;;-6.43;84.50;97558.10;1788921;80;20950;-61
2021/12/29 16:59:51;;;;;;;41.05;24.40;;;;;;;-6.43;84.53;97563.84;1788283;80;20954;-64
2021/12/29 17:02:18;;;;;;;40.38;24.72;;;;;;;-6.46;84.46;97565.03;1788451;80;20864;-62
2021/12/29 17:04:44;;;;;;;48.15;25.85;;;;;;;-6.51;84.54;97567.89;1788241;80;21121;-63
2021/12/29 17:07:11;;;;;;;44.48;26.75;;;;;;;-6.54;84.63;97568.27;1788075;80;20915;-66
2021/12/29 17:09:38;;;;;;;48.55;27.10;;;;;;;-6.52;84.85;97570.99;1788334;80;21434;-69
2021/12/29 17:12:08;;;;;;;52.40;27.52;;;;;;;-6.46;84.93;97568.13;1788157;80;20950;-65
2021/12/29 17:14:36;;;;;;;46.88;28.00;;;;;;;-6.41;84.82;97567.05;1788354;80;20927;-67
2021/12/29 17:17:03;;;;;;;40.58;25.48;;;;;;;-6.42;84.80;97560.22;1788131;80;21509;-64
2021/12/29 17:19:31;;;;;;;46.65;26.00;;;;;;;-6.42;84.81;97563.63;1788408;80;20950;-70
2021/12/29 17:21:59;;;;;;;41.55;25.37;;;;;;;-6.44;84.78;97566.12;1788072;80;20883;-62
2021/12/29 17:24:28;;;;;;;41.13;24.95;;;;;;;-6.44;84.93;97571.34;1788137;80;20832;-71
2021/12/29 17:26:57;;;;;;;41.92;25.80;;;;;;;-6.42;84.97;97562.33;1788187;80;21514;-70
2021/12/29 17:29:29;;;;;;;45.52;25.57;;;;;;;-6.39;84.93;97566.35;1788153;80;21884;-70
2021/12/29 17:31:55;;;;;;;46.92;26.20;;;;;;;-6.37;85.00;97559.14;1787445;80;20958;-69
2021/12/29 17:34:24;;;;;;;45.33;26.07;;;;;;;-6.36;84.93;97568.58;1788148;80;20974;-69
2021/12/29 17:36:51;;;;;;;42.08;25.00;;;;;;;-6.38;84.89;97569.25;1788205;80;20981;-62
2021/12/29 17:39:19;;;;;;;48.25;27.52;;;;;;;-6.37;84.96;97572.17;1788063;80;20864;-61
2021/12/29 17:41:46;;;;;;;47.48;26.70;;;;;;;-6.39;85.01;97576.78;1788241;80;21109;-62
2021/12/29 17:44:12;;;;;;;44.00;26.35;;;;;;;-6.36;85.14;97577.18;1788346;80;20920;-66
2021/12/29 17:46:40;;;;;;;42.58;25.48;;;;;;;-6.27;85.12;97578.65;1788403;80;20899;-68
2021/12/29 17:49:07;;;;;;;43.17;24.12;;;;;;;-6.21;84.99;97577.05;1788480;80;21364;-65
2021/12/29 17:51:34;;;;;;;46.98;27.13;;;;;;;-6.23;84.83;97581.66;1788247;80;21478;-66
2021/12/29 17:54:01;;;;;;;44.58;26.57;;;;;;;-6.27;84.88;97580.45;1788310;80;21117;-66
2021/12/29 17:56:30;;;;;;;50.55;28.52;;;;;;;-6.22;85.02;97583.28;1788223;80;20871;-62
2021/12/29 17:58:57;;;;;;;51.55;29.87;;;;;;;-6.18;84.96;97587.09;1788313;80;21463;-70
2021/12/29 18:01:24;;;;;;;50.63;28.67;;;;;;;-6.17;84.93;97592.59;1788260;80;20927;-61
2021/12/29 18:03:51;;;;;;;49.55;29.32;;;;;;;-6.14;85.01;97592.22;1788325;80;21564;-65
2021/12/29 18:06:18;;;;;;;53.30;30.75;;;;;;;-6.08;85.03;97597.97;1788301;80;21131;-69
2021/12/29 18:08:45;;;;;;;51.37;29.75;;;;;;;-6.03;84.93;97599.47;1788494;80;20934;-66
2021/12/29 18:11:12;;;;;;;52.83;30.10;;;;;;;-6.01;84.78;97594.89;1788278;80;20938;-65
2021/12/29 18:13:41;;;;;;;49.90;29.50;;;;;;;-5.97;84.84;97599.20;1788361;80;20884;-62
2021/12/29 18:16:11;;;;;;;43.87;27.60;;;;;;;-5.93;84.67;97592.09;1788340;80;20899;-66
2021/12/29 18:18:39;;;;;;;53.30;29.55;;;;;;;-5.89;84.59;97602.46;1788292;80;21427;-66
2021/12/29 18:21:07;;;;;;;49.30;28.25;;;;;;;-5.91;84.52;97600.52;1788069;80;20879;-70
2021/12/29 18:28:41;;;;;;;41.77;25.92;;;;;;;-6.00;84.47;97606.91;1787848;80;21551;-66
2021/12/29 18:31:08;;;;;;;49.25;29.27;;;;;;;-6.03;84.67;97617.72;1787737;80;21122;-67
2021/12/29 18:33:35;;;;;;;51.37;30.82;;;;;;;-5.99;84.76;97615.05;1787677;80;20876;-62
2021/12/29 18:36:03;;;;;;;47.35;27.50;;;;;;;-5.89;84.71;97622.02;1787906;80;21407;-69
2021/12/29 18:38:30;;;;;;;51.20;29.25;;;;;;;-5.85;84.66;97629.75;1787681;80;20888;-71
2021/12/29 18:40:57;;;;;;;50.92;29.98;;;;;;;-5.81;84.65;97632.23;1788383;80;21469;-62
2021/12/29 18:43:24;;;;;;;52.00;31.00;;;;;;;-5.78;84.59;97637.56;1788154;80;21113;-71
2021/12/29 18:45:51;;;;;;;42.40;24.77;;;;;;;-5.73;84.61;97637.78;1788418;80;21529;-69
2021/12/29 18:48:21;;;;;;;40.83;24.92;;;;;;;-5.69;84.51;97634.59;1788474;80;20879;-64
2021/12/29 18:50:48;;;;;;;42.85;27.13;;;;;;;-5.68;84.46;97632.30;1787957;80;20865;-62
2021/12/29 18:53:15;;;;;;;44.18;26.95;;;;;;;-5.64;84.31;97634.80;1787998;80;20923;-69
2021/12/29 18:55:43;;;;;;;88.33;40.45;;;;;;;-5.65;84.26;97641.02;1788310;80;20955;-69
2021/12/29 18:58:10;;;;;;;73.42;39.27;;;;;;;-5.67;84.14;97643.02;1788031;80;21217;-71
2021/12/29 19:00:39;;;;;;;46.13;30.20;;;;;;;-5.68;84.17;97645.83;1787977;80;20860;-71
2021/12/29 19:03:07;;;;;;;42.15;27.27;;;;;;;-5.70;84.21;97643.40;1787902;80;20931;-62
2021/12/29 19:05:33;;;;;;;39.00;25.60;;;;;;;-5.69;84.18;97645.02;1787793;80;21001;-69
2021/12/29 19:08:02;;;;;;;44.42;27.13;;;;;;;-5.72;84.08;97649.81;1787765;80;20970;-67
2021/12/29 19:10:29;;;;;;;48.33;29.57;;;;;;;-5.73;84.20;97647.73;1787777;80;20860;-66
2021/12/29 19:12:56;;;;;;;39.95;25.62;;;;;;;-5.67;84.23;97647.42;1787757;80;20820;-66
2021/12/29 19:15:25;;;;;;;41.02;25.43;;;;;;;-5.64;84.09;97654.37;1787774;80;20875;-64
2021/12/29 19:17:52;;;;;;;43.30;28.32;;;;;;;-5.66;84.11;97651.16;1787757;80;20974;-67
2021/12/29 19:20:20;;;;;;;42.25;27.17;;;;;;;-5.67;84.06;97657.86;1787968;80;21383;-68
2021/12/29 19:22:48;;;;;;;40.52;25.60;;;;;;;-5.67;84.13;97656.06;1791054;80;21349;-70
2021/12/29 19:25:16;;;;;;;47.10;27.05;;;;;;;-5.65;84.12;97657.16;1793333;80;20950;-68
2021/12/29 19:27:43;;;;;;;47.05;28.42;;;;;;;-5.58;84.19;97659.29;1793637;80;20943;-61
2021/12/29 19:30:12;;;;;;;48.42;28.02;;;;;;;-5.56;84.03;97658.09;1765508;80;20887;-66
2021/12/29 19:32:42;;;;;;;46.60;27.67;;;;;;;-5.58;83.91;97652.27;1793598;80;20911;-65
2021/12/29 19:35:09;;;;;;;63.60;32.98;;;;;;;-5.61;84.01;97660.52;1765363;80;20867;-66
2021/12/29 19:37:36;;;;;;;63.10;35.30;;;;;;;-5.59;84.06;97652.48;1793754;80;20860;-62
2021/12/29 19:40:08;;;;;;;55.80;32.63;;;;;;;-5.59;84.04;97655.09;1793609;80;20876;-68
2021/12/29 19:42:35;;;;;;;51.75;32.20;;;;;;;-5.55;84.13;97662.33;1794354;80;20958;-66
2021/12/29 19:45:03;;;;;;;38.92;25.08;;;;;;;-5.44;84.06;97662.77;1793273;80;21119;-64
2021/12/29 19:47:31;;;;;;;46.55;28.70;;;;;;;-5.42;83.67;97665.97;1793201;80;20902;-62
2021/12/29 19:49:58;;;;;;;43.60;26.40;;;;;;;-5.48;83.72;97664.14;1793391;80;20867;-66
2021/12/29 19:52:28;;;;;;;45.63;27.62;;;;;;;-5.53;83.75;97658.20;1793247;80;20890;-69
2021/12/29 19:54:56;;;;;;;45.80;27.55;;;;;;;-5.55;83.84;97663.63;1793629;80;20938;-62
2021/12/29 19:57:23;;;;;;;40.48;27.05;;;;;;;-5.55;83.86;97672.77;1793818;80;21406;-62
2021/12/29 19:59:50;;;;;;;43.08;25.57;;;;;;;-5.55;83.98;97675.87;1793415;80;20894;-72
2021/12/29 20:02:18;;;;;;;42.25;25.43;;;;;;;-5.48;83.99;97679.80;1765275;80;20835;-63
2021/12/29 20:04:45;;;;;;;38.35;25.80;;;;;;;-5.45;83.97;97685.44;1793177;80;20962;-66
2021/12/29 20:07:11;;;;;;;39.63;24.85;;;;;;;-5.40;84.04;97683.05;1793230;80;21009;-62
2021/12/29 20:09:40;;;;;;;37.55;24.87;;;;;;;-5.30;83.93;97689.20;1793223;80;21772;-61
2021/12/29 20:12:09;;;;;;;44.42;26.48;;;;;;;-5.26;83.67;97691.71;1793144;80;21403;-62
2021/12/29 20:14:37;;;;;;;47.38;30.40;;;;;;;-5.27;83.70;97690.09;1793115;80;20863;-69
2021/12/29 20:17:06;;;;;;;47.00;30.35;;;;;;;-5.27;83.67;97678.34;1793181;80;21434;-64
2021/12/29 20:19:34;;;;;;;50.35;28.47;;;;;;;-5.29;83.70;97684.27;1793218;80;20872;-70
2021/12/29 20:22:01;;;;;;;49.95;28.42;;;;;;;-5.28;83.72;97688.01;1793386;80;21450;-62
2021/12/29 20:24:28;;;;;;;41.42;25.15;;;;;;;-5.24;83.75;97690.52;1793072;80;20902;-71
2021/12/29 20:26:55;;;;;;;46.58;25.68;;;;;;;-5.16;83.73;97687.73;1793210;80;20887;-71
2021/12/29 20:29:23;;;;;;;48.30;27.27;;;;;;;-5.13;83.51;97687.81;1793274;80;20962;-71
2021/12/29 20:31:50;;;;;;;43.08;25.40;;;;;;;-5.12;83.46;97685.52;1793233;80;21385;-67
2021/12/29 20:34:17;;;;;;;42.73;25.62;;;;;;;-5.13;83.27;97687.31;1793202;80;21111;-68
2021/12/29 20:36:43;;;;;;;40.55;25.30;;;;;;;-5.15;83.27;97691.13;1793221;80;20962;-62
2021/12/29 20:39:13;;;;;;;42.45;25.23;;;;;;;-5.19;83.28;97693.34;1793384;80;20839;-63
2021/12/29 20:41:41;;;;;;;37.83;24.37;;;;;;;-5.18;83.24;97688.93;1793039;80;20922;-61
2021/12/29 20:44:08;;;;;;;39.70;25.57;;;;;;;-5.19;83.34;97685.51;1793112;80;20871;-63
2021/12/29 20:46:36;;;;;;;42.70;27.48;;;;;;;-5.17;83.33;97680.08;1793177;80;20935;-68
2021/12/29 20:49:04;;;;;;;42.27;25.90;;;;;;;-5.16;83.32;97679.90;1793124;80;20907;-65
2021/12/29 20:51:31;;;;;;;44.63;28.47;;;;;;;-5.13;83.28;97686.01;1793301;80;20872;-70
2021/12/29 20:53:59;;;;;;;39.00;26.50;;;;;;;-5.12;83.24;97688.12;1793368;80;20879;-63
2021/12/29 20:56:26;;;;;;;41.25;24.47;;;;;;;-5.11;83.18;97691.05;1793423;80;20970;-64
2021/12/29 20:58:54;;;;;;;40.12;25.92;;;;;;;-5.15;83.10;97691.94;1793080;80;21300;-70